Time;durP1;ratioP1;P1;durP2;ratioP2;P2;SDS_P1;SDS_P2;PMS_P1;PMS_P2;Temp;Humidity;BMP_temperature;BMP_pressure;BME280_temperature;BME280_humidity;BME280_pressure;Samples;Min_cycle;Max_cycle;Signal;HPM_P1;HPM_P2
2022/02/24 00:00:18;;;;;;;27.80;12.25;;;;;;;3.71;82.77;148597.92;1698834;84;21016;-58
2022/02/24 00:02:45;;;;;;;28.65;12.70;;;;;;;3.66;82.38;148585.03;1699208;83;21022;-58
2022/02/24 00:05:12;;;;;;;27.00;12.13;;;;;;;3.61;82.14;148570.81;1697626;83;21365;-58
2022/02/24 00:07:40;;;;;;;26.17;13.22;;;;;;;3.58;81.81;148564.34;1698410;82;21061;-62
2022/02/24 00:10:09;;;;;;;24.20;12.13;;;;;;;3.54;80.94;148555.34;1724176;82;22270;-58
2022/02/24 00:12:37;;;;;;;43.60;20.40;;;;;;;3.46;80.55;148534.66;1694126;83;21043;-57
2022/02/24 00:15:07;;;;;;;28.75;14.60;;;;;;;3.37;80.33;148511.45;1718237;83;33361;-57
2022/02/24 00:17:36;;;;;;;104.92;43.80;;;;;;;3.28;80.33;148490.78;1697196;84;20973;-58
2022/02/24 00:20:04;;;;;;;67.45;30.52;;;;;;;3.20;80.30;148468.83;1697981;83;20955;-58
2022/02/24 00:22:32;;;;;;;199.40;92.85;;;;;;;3.11;80.30;148448.20;1703956;81;21530;-58
2022/02/24 00:25:00;;;;;;;139.82;63.63;;;;;;;3.03;79.95;148427.58;1721645;81;21675;-60
2022/02/24 00:27:28;;;;;;;216.23;95.57;;;;;;;2.98;79.22;148414.64;1695409;84;21562;-57
2022/02/24 00:29:56;;;;;;;331.60;145.05;;;;;;;2.91;78.94;148397.91;1711482;83;21101;-58
2022/02/24 00:32:23;;;;;;;266.38;119.82;;;;;;;2.83;78.43;148378.55;1722255;83;21089;-58
2022/02/24 00:34:49;;;;;;;177.38;81.78;;;;;;;2.75;77.59;148357.88;1708776;83;21137;-62
2022/02/24 00:37:16;;;;;;;169.68;79.50;;;;;;;2.68;76.73;148339.84;1694823;83;22143;-58
2022/02/24 00:39:44;;;;;;;39.65;19.07;;;;;;;2.61;76.52;148321.80;1701205;82;21051;-58
2022/02/24 00:42:11;;;;;;;31.75;14.28;;;;;;;2.55;75.71;148308.91;1735132;82;21081;-58
2022/02/24 00:44:37;;;;;;;43.90;17.40;;;;;;;2.54;75.74;148305.02;1727841;82;21092;-58
2022/02/24 00:47:04;;;;;;;34.05;16.02;;;;;;;2.52;76.04;148301.13;1700495;83;21111;-63
2022/02/24 00:49:32;;;;;;;60.52;23.95;;;;;;;2.50;76.39;148295.97;1697730;83;21081;-63
2022/02/24 00:51:59;;;;;;;40.73;18.17;;;;;;;2.45;76.72;148283.09;1697683;83;21077;-63
2022/02/24 00:54:26;;;;;;;30.95;15.23;;;;;;;2.40;77.35;148270.20;1704846;83;21527;-63
2022/02/24 00:56:52;;;;;;;27.07;12.73;;;;;;;2.38;77.69;148266.31;1703352;83;21349;-62
2022/02/24 00:59:19;;;;;;;31.93;14.80;;;;;;;2.40;77.80;148270.20;1699498;83;21641;-61
2022/02/24 01:01:48;;;;;;;28.40;12.82;;;;;;;2.43;78.17;148277.94;1709460;83;21468;-61
2022/02/24 01:04:15;;;;;;;31.42;13.18;;;;;;;2.46;78.88;148285.67;1728012;82;21068;-61
2022/02/24 01:06:43;;;;;;;29.87;11.45;;;;;;;2.51;79.07;148298.56;1716042;83;21037;-61
2022/02/24 01:09:09;;;;;;;29.27;12.13;;;;;;;2.55;79.28;148307.59;1720491;83;21062;-57
2022/02/24 01:11:36;;;;;;;165.40;75.65;;;;;;;2.59;79.59;148317.91;1706721;83;21124;-59
2022/02/24 01:14:03;;;;;;;198.13;91.25;;;;;;;2.62;79.63;148324.38;1713168;83;21068;-57
2022/02/24 01:16:29;;;;;;;216.27;99.72;;;;;;;2.66;79.90;148334.69;1667480;85;21079;-62
2022/02/24 01:18:57;;;;;;;131.67;57.80;;;;;;;2.68;79.93;148339.84;1684130;83;21521;-58
2022/02/24 01:21:23;;;;;;;57.58;27.07;;;;;;;2.70;80.10;148346.31;1669532;84;21096;-62
2022/02/24 01:23:50;;;;;;;34.85;16.10;;;;;;;2.74;80.46;148354.03;1689761;84;21142;-62
2022/02/24 01:26:16;;;;;;;149.80;67.95;;;;;;;2.80;80.54;148369.50;1674486;84;21060;-61
2022/02/24 01:28:43;;;;;;;247.55;113.40;;;;;;;2.80;80.82;148370.81;1703333;83;21447;-62
2022/02/24 01:31:10;;;;;;;205.12;89.97;;;;;;;2.83;81.23;148378.55;1715501;83;21052;-58
2022/02/24 01:33:37;;;;;;;142.65;66.50;;;;;;;2.86;81.56;148384.97;1714990;83;21085;-58
2022/02/24 01:36:05;;;;;;;108.37;46.05;;;;;;;2.90;81.57;148395.33;1686094;84;21712;-62
2022/02/24 01:38:32;;;;;;;56.18;26.52;;;;;;;2.92;81.35;148399.17;1700817;83;21029;-62
2022/02/24 01:40:58;;;;;;;65.60;29.32;;;;;;;2.90;81.46;148395.33;1712167;83;21024;-62
2022/02/24 01:43:50;;;;;;;63.40;29.25;;;;;;;2.90;81.68;148394.02;1712489;83;21214;-58
2022/02/24 01:46:16;;;;;;;35.52;16.02;;;;;;;2.92;81.76;148399.17;1685168;83;21089;-61
2022/02/24 01:48:44;;;;;;;31.62;13.35;;;;;;;2.91;82.03;148397.91;1685361;83;21140;-58
2022/02/24 01:51:10;;;;;;;26.57;12.63;;;;;;;2.93;82.08;148403.06;1698458;82;21100;-62
2022/02/24 01:53:37;;;;;;;31.60;13.38;;;;;;;2.93;82.09;148403.06;1692969;83;20934;-57
2022/02/24 01:56:05;;;;;;;31.02;13.50;;;;;;;2.93;82.15;148401.75;1688508;83;21131;-58
2022/02/24 01:58:32;;;;;;;28.47;12.47;;;;;;;2.92;82.48;148399.17;1685508;81;21100;-62
2022/02/24 02:01:01;;;;;;;34.95;13.43;;;;;;;2.94;82.62;148404.33;1702489;81;21037;-62
2022/02/24 02:03:30;;;;;;;27.00;13.20;;;;;;;2.94;82.86;148404.33;1720704;83;21068;-62
2022/02/24 02:05:57;;;;;;;22.80;12.20;;;;;;;2.95;83.10;148406.91;1701729;81;20922;-59
2022/02/24 02:08:25;;;;;;;28.10;13.10;;;;;;;2.98;83.87;148414.64;1701314;82;21057;-58
2022/02/24 02:10:52;;;;;;;30.80;12.40;;;;;;;3.02;83.96;148425.00;1726443;82;21457;-58
2022/02/24 02:13:19;;;;;;;25.00;12.58;;;;;;;3.05;84.27;148431.42;1676068;85;21128;-59
2022/02/24 02:15:48;;;;;;;29.15;12.75;;;;;;;3.08;84.27;148440.47;1669542;85;21463;-59
2022/02/24 02:18:15;;;;;;;164.57;77.87;;;;;;;3.08;84.58;148440.47;1671669;84;21108;-62
2022/02/24 02:20:42;;;;;;;179.90;84.50;;;;;;;3.09;84.91;148443.05;1704051;82;21933;-62
2022/02/24 02:23:09;;;;;;;323.68;149.82;;;;;;;3.07;85.20;148437.89;1695038;82;21091;-58
2022/02/24 02:25:37;;;;;;;274.12;125.33;;;;;;;3.07;85.65;148437.89;1685950;83;21028;-62
2022/02/24 02:28:04;;;;;;;380.48;174.05;;;;;;;3.06;85.99;148435.31;1707679;83;21039;-59
2022/02/24 02:30:32;;;;;;;347.73;163.15;;;;;;;3.03;86.90;148427.58;1707844;83;21033;-58
2022/02/24 02:32:58;;;;;;;333.90;151.95;;;;;;;3.00;87.04;148419.84;1707267;83;20988;-57
2022/02/24 02:35:26;;;;;;;233.95;106.12;;;;;;;2.95;87.75;148406.91;1708055;83;21079;-57
2022/02/24 02:37:53;;;;;;;271.68;120.13;;;;;;;2.92;88.41;148399.17;1697473;83;21932;-58
2022/02/24 02:40:20;;;;;;;267.25;116.12;;;;;;;2.89;89.24;148391.44;1701100;81;21117;-58
2022/02/24 02:42:46;;;;;;;321.00;148.57;;;;;;;2.84;90.30;148381.12;1703452;83;21457;-59
2022/02/24 02:45:13;;;;;;;180.00;76.33;;;;;;;2.82;90.49;148375.97;1693680;84;21713;-58
2022/02/24 02:47:40;;;;;;;252.53;113.35;;;;;;;2.80;90.81;148370.81;1702294;83;21057;-58
2022/02/24 02:50:08;;;;;;;374.98;179.95;;;;;;;2.77;91.95;148363.09;1683690;84;21158;-58
2022/02/24 02:52:35;;;;;;;249.65;114.82;;;;;;;2.72;92.18;148351.47;1696801;83;21053;-59
2022/02/24 02:55:10;;;;;;;92.42;42.60;;;;;;;2.70;92.73;148346.31;1693976;84;21509;-59
2022/02/24 02:57:37;;;;;;;277.25;130.20;;;;;;;2.68;93.30;148339.84;1694654;83;21058;-58
2022/02/24 03:00:07;;;;;;;230.12;105.85;;;;;;;2.63;93.27;148326.95;1717570;81;21393;-58
2022/02/24 03:02:34;;;;;;;278.48;127.00;;;;;;;2.60;93.61;148319.22;1731604;82;21613;-58
2022/02/24 03:05:00;;;;;;;193.62;86.08;;;;;;;2.53;93.77;148303.70;1703960;83;21034;-58
2022/02/24 03:07:27;;;;;;;167.15;72.03;;;;;;;2.48;94.38;148290.83;1680822;85;21079;-58
2022/02/24 03:09:54;;;;;;;60.23;28.32;;;;;;;2.40;94.71;148271.47;1703682;83;21046;-58
2022/02/24 03:12:20;;;;;;;27.93;13.75;;;;;;;2.37;95.24;148262.48;1721999;83;21463;-58
2022/02/24 03:14:48;;;;;;;24.77;10.78;;;;;;;2.33;95.21;148252.17;1714618;83;21139;-59
2022/02/24 03:17:16;;;;;;;31.73;11.50;;;;;;;2.31;95.74;148246.97;1721885;82;21049;-59
2022/02/24 03:19:42;;;;;;;21.70;9.98;;;;;;;2.29;96.18;148244.39;1722372;81;21475;-59
2022/02/24 03:22:12;;;;;;;26.85;10.95;;;;;;;2.29;96.40;148243.13;1716706;83;21604;-58
2022/02/24 03:24:40;;;;;;;23.52;10.93;;;;;;;2.32;96.92;148249.55;1696003;83;21479;-58
2022/02/24 03:27:07;;;;;;;19.85;9.78;;;;;;;2.34;97.55;148254.75;1704267;83;21099;-58
2022/02/24 03:29:37;;;;;;;28.00;10.43;;;;;;;2.37;98.09;148263.75;1700928;84;20947;-58
2022/02/24 03:32:05;;;;;;;24.07;11.30;;;;;;;2.43;98.38;148277.94;1705286;84;21093;-58
2022/02/24 03:34:31;;;;;;;23.05;10.32;;;;;;;2.47;98.62;148288.25;1702466;84;21042;-58
2022/02/24 03:36:58;;;;;;;20.95;10.90;;;;;;;2.51;98.92;148298.56;1705714;84;21598;-58
2022/02/24 03:39:25;;;;;;;26.37;10.98;;;;;;;2.56;99.35;148311.48;1683897;83;21129;-59
2022/02/24 03:41:52;;;;;;;26.10;11.65;;;;;;;2.62;99.73;148324.38;1706124;83;21037;-58
2022/02/24 03:44:18;;;;;;;31.80;10.82;;;;;;;2.66;99.64;148334.69;1707403;83;20985;-57
2022/02/24 03:46:45;;;;;;;30.25;11.20;;;;;;;2.68;99.75;148341.16;1727729;83;21011;-58
2022/02/24 03:49:12;;;;;;;20.43;11.50;;;;;;;2.72;99.67;148350.16;1727610;83;21093;-58
2022/02/24 03:51:40;;;;;;;23.87;10.98;;;;;;;2.74;99.78;148354.03;1713655;83;21146;-58
2022/02/24 03:54:07;;;;;;;25.48;12.28;;;;;;;2.76;99.84;148359.19;1683238;85;21423;-58
2022/02/24 03:56:34;;;;;;;24.87;12.15;;;;;;;2.78;99.99;148365.66;1708415;83;21048;-58
2022/02/24 03:59:00;;;;;;;24.75;12.18;;;;;;;2.80;100.00;148370.81;1734671;82;21014;-58
2022/02/24 04:01:27;;;;;;;24.27;11.40;;;;;;;2.83;100.00;148378.55;1721334;82;21104;-59
2022/02/24 04:03:54;;;;;;;26.52;10.23;;;;;;;2.85;100.00;148383.70;1709508;83;21099;-58
2022/02/24 04:06:21;;;;;;;32.28;11.55;;;;;;;2.84;100.00;148381.12;1720697;82;21306;-59
2022/02/24 04:08:48;;;;;;;21.87;10.68;;;;;;;2.83;100.00;148378.55;1735121;82;21598;-60
2022/02/24 04:11:15;;;;;;;28.62;12.58;;;;;;;2.83;100.00;148378.55;1726560;82;21047;-58
2022/02/24 04:13:42;;;;;;;31.85;13.15;;;;;;;2.85;100.00;148382.39;1689968;83;21075;-58
2022/02/24 04:16:09;;;;;;;33.50;12.23;;;;;;;2.88;100.00;148388.86;1750797;81;21684;-59
2022/02/24 04:18:35;;;;;;;23.73;11.65;;;;;;;2.89;100.00;148391.44;1740042;81;21080;-60
2022/02/24 04:21:02;;;;;;;23.80;11.60;;;;;;;2.90;100.00;148394.02;1746411;81;21056;-58
2022/02/24 04:23:29;;;;;;;22.07;10.72;;;;;;;2.90;100.00;148395.33;1750056;80;21104;-58
2022/02/24 04:25:56;;;;;;;23.02;10.90;;;;;;;2.92;100.00;148399.17;1748794;81;21100;-59
2022/02/24 04:28:23;;;;;;;26.77;12.98;;;;;;;2.90;100.00;148395.33;1754792;81;21729;-58
2022/02/24 04:30:50;;;;;;;26.93;12.47;;;;;;;2.92;100.00;148399.17;1754206;81;21096;-59
2022/02/24 04:33:17;;;;;;;23.95;11.12;;;;;;;2.92;100.00;148400.48;1751258;81;21320;-58
2022/02/24 04:35:44;;;;;;;22.90;11.83;;;;;;;2.93;100.00;148403.06;1753718;81;21031;-59
2022/02/24 04:38:11;;;;;;;26.25;12.10;;;;;;;2.94;100.00;148405.64;1751925;81;21107;-59
2022/02/24 04:40:37;;;;;;;20.75;12.03;;;;;;;2.93;100.00;148403.06;1741077;81;21514;-58
2022/02/24 04:43:04;;;;;;;28.60;12.28;;;;;;;2.92;100.00;148399.17;1726306;81;21055;-59
2022/02/24 04:45:31;;;;;;;26.60;13.05;;;;;;;2.92;100.00;148399.17;1723617;81;21584;-59
2022/02/24 04:47:58;;;;;;;24.90;12.75;;;;;;;2.91;100.00;148397.91;1743372;81;21041;-59
2022/02/24 04:50:25;;;;;;;23.20;11.88;;;;;;;2.92;100.00;148399.17;1748778;80;21447;-60
2022/02/24 04:52:52;;;;;;;23.05;12.05;;;;;;;2.91;100.00;148396.59;1730301;81;21122;-58
2022/02/24 04:55:18;;;;;;;25.50;12.18;;;;;;;2.90;100.00;148394.02;1721892;83;21558;-59
2022/02/24 04:57:45;;;;;;;25.27;12.07;;;;;;;2.89;100.00;148392.75;1737967;80;21048;-58
2022/02/24 05:00:13;;;;;;;21.73;12.40;;;;;;;2.89;100.00;148392.75;1734195;81;21056;-60
2022/02/24 05:02:39;;;;;;;29.55;12.73;;;;;;;2.89;100.00;148392.75;1749898;81;21154;-59
2022/02/24 05:05:06;;;;;;;23.80;10.82;;;;;;;2.90;100.00;148394.02;1726542;81;21460;-62
2022/02/24 05:07:35;;;;;;;28.70;12.65;;;;;;;2.94;100.00;148404.33;1662631;84;21128;-63
2022/02/24 05:10:03;;;;;;;28.40;13.05;;;;;;;2.99;100.00;148418.53;1720939;82;21089;-63
2022/02/24 05:12:31;;;;;;;25.12;12.23;;;;;;;3.05;100.00;148432.73;1722155;82;21148;-62
2022/02/24 05:14:58;;;;;;;22.75;11.57;;;;;;;3.11;100.00;148446.94;1732737;81;21047;-63
2022/02/24 05:17:25;;;;;;;21.52;11.20;;;;;;;3.17;100.00;148462.41;1724464;82;21168;-64
2022/02/24 05:19:51;;;;;;;25.75;12.70;;;;;;;3.23;100.00;148476.61;1718896;83;21010;-62
2022/02/24 05:22:20;;;;;;;27.82;12.28;;;;;;;3.27;100.00;148486.94;1715665;83;20970;-63
2022/02/24 05:24:47;;;;;;;26.25;12.50;;;;;;;3.35;100.00;148507.56;1718576;82;21043;-63
2022/02/24 05:27:13;;;;;;;23.10;11.97;;;;;;;3.40;100.00;148519.19;1664349;84;21088;-62
2022/02/24 05:29:40;;;;;;;32.20;12.55;;;;;;;3.43;100.00;148528.23;1732574;81;21587;-63
2022/02/24 05:32:07;;;;;;;20.15;11.53;;;;;;;3.49;100.00;148541.12;1710131;82;21065;-59
2022/02/24 05:34:34;;;;;;;21.60;11.35;;;;;;;3.49;100.00;148541.12;1723971;81;21045;-58
2022/02/24 05:37:01;;;;;;;24.12;11.55;;;;;;;3.49;100.00;148541.12;1724753;83;21494;-58
2022/02/24 05:39:28;;;;;;;25.02;10.72;;;;;;;3.50;100.00;148543.72;1725231;83;21101;-61
2022/02/24 05:41:56;;;;;;;21.42;11.50;;;;;;;3.50;100.00;148544.97;1719016;83;21094;-62
2022/02/24 05:44:22;;;;;;;24.50;10.78;;;;;;;3.53;100.00;148551.45;1721226;83;21038;-62
2022/02/24 05:46:49;;;;;;;21.65;10.78;;;;;;;3.57;100.00;148561.77;1712470;83;21080;-62
2022/02/24 05:49:16;;;;;;;19.82;10.43;;;;;;;3.60;100.00;148569.50;1723489;81;21463;-63
2022/02/24 05:51:44;;;;;;;24.43;11.25;;;;;;;3.67;99.96;148587.61;1720777;82;21109;-58
2022/02/24 05:54:11;;;;;;;25.92;11.40;;;;;;;3.76;99.57;148608.25;1665714;86;21863;-63
2022/02/24 05:56:38;;;;;;;22.32;11.18;;;;;;;3.85;99.17;148632.78;1726552;83;21057;-59
2022/02/24 05:59:05;;;;;;;22.13;11.55;;;;;;;3.93;98.61;148652.16;1666277;86;21077;-58
2022/02/24 06:01:31;;;;;;;16.40;9.38;;;;;;;4.04;98.30;148677.95;1700716;83;21089;-59
2022/02/24 06:03:58;;;;;;;21.95;11.45;;;;;;;4.14;97.66;148705.06;1703786;81;21494;-58
2022/02/24 06:06:25;;;;;;;26.52;11.83;;;;;;;4.22;97.18;148724.44;1726526;80;21194;-59
2022/02/24 06:08:53;;;;;;;22.22;11.70;;;;;;;4.29;96.89;148742.50;1735667;80;20949;-59
2022/02/24 06:11:20;;;;;;;25.75;11.93;;;;;;;4.39;96.61;148765.78;1730859;80;21049;-58
2022/02/24 06:13:48;;;;;;;20.27;10.28;;;;;;;4.50;96.12;148794.17;1702342;82;21467;-62
2022/02/24 06:16:15;;;;;;;25.77;11.25;;;;;;;4.65;95.19;148830.36;1716150;83;21753;-63
2022/02/24 06:18:42;;;;;;;23.18;12.00;;;;;;;4.65;95.19;148830.36;1715409;83;21051;-63
2022/02/24 06:21:09;;;;;;;31.85;11.90;;;;;;;4.67;94.80;148835.53;1681854;84;21089;-63
2022/02/24 06:23:35;;;;;;;33.23;12.45;;;;;;;4.73;94.82;148851.02;1744269;81;21854;-62
2022/02/24 06:26:02;;;;;;;24.15;12.37;;;;;;;4.81;94.36;148871.72;1745186;81;21100;-62
2022/02/24 06:28:29;;;;;;;21.07;11.48;;;;;;;4.91;93.92;148894.95;1741563;81;21083;-62
2022/02/24 06:30:55;;;;;;;24.02;12.73;;;;;;;4.97;93.07;148910.44;1738783;81;21137;-63
2022/02/24 06:33:22;;;;;;;19.73;10.48;;;;;;;5.00;92.97;148919.50;1738060;81;21362;-62
2022/02/24 06:35:50;;;;;;;37.03;12.53;;;;;;;5.04;92.60;148927.25;1724038;81;21546;-58
2022/02/24 06:38:16;;;;;;;22.17;11.10;;;;;;;5.09;92.76;148941.47;1752138;80;21088;-60
2022/02/24 06:40:50;;;;;;;31.23;10.93;;;;;;;5.21;92.40;148969.94;1755619;80;21410;-58
2022/02/24 06:43:16;;;;;;;24.25;11.55;;;;;;;5.33;92.01;148999.66;1749351;81;21552;-59
2022/02/24 06:45:43;;;;;;;36.63;12.10;;;;;;;5.43;91.45;149026.81;1744530;80;21144;-59
2022/02/24 06:48:27;;;;;;;28.92;11.68;;;;;;;5.56;91.10;149057.80;1760877;80;21062;-59
2022/02/24 06:50:54;;;;;;;25.82;10.75;;;;;;;5.67;89.96;149086.27;1743192;80;21113;-59
2022/02/24 06:53:21;;;;;;;26.20;10.63;;;;;;;5.71;89.01;149096.59;1737716;80;22115;-59
2022/02/24 06:55:48;;;;;;;19.67;9.55;;;;;;;5.68;88.41;149088.84;1737477;81;21560;-60
2022/02/24 06:58:15;;;;;;;21.50;9.98;;;;;;;5.65;88.42;149081.09;1735933;80;21076;-61
2022/02/24 07:00:42;;;;;;;21.25;9.95;;;;;;;5.70;88.37;149094.02;1713211;81;21151;-58
2022/02/24 07:03:09;;;;;;;17.85;9.73;;;;;;;5.71;88.15;149096.59;1711091;81;21097;-58
2022/02/24 07:05:36;;;;;;;18.90;9.58;;;;;;;5.79;87.89;149114.69;1724639;81;21288;-58
2022/02/24 07:08:04;;;;;;;24.85;10.95;;;;;;;5.83;87.39;149126.34;1717144;81;21155;-59
2022/02/24 07:10:31;;;;;;;23.35;12.20;;;;;;;5.87;87.38;149135.41;1721174;81;21176;-58
2022/02/24 07:12:57;;;;;;;16.17;9.55;;;;;;;5.96;87.26;149158.66;1712899;81;21145;-59
2022/02/24 07:15:27;;;;;;;19.12;10.23;;;;;;;6.08;86.22;149188.45;1716490;81;21156;-59
2022/02/24 07:17:53;;;;;;;20.68;9.43;;;;;;;6.18;86.02;149213.03;1687501;83;21065;-58
2022/02/24 07:20:22;;;;;;;20.40;9.35;;;;;;;6.28;85.22;149238.88;1689520;83;21366;-59
2022/02/24 07:22:50;;;;;;;17.32;9.85;;;;;;;6.38;84.73;149262.19;1712822;82;21092;-59
2022/02/24 07:25:17;;;;;;;20.90;10.45;;;;;;;6.53;84.40;149301.02;1710002;81;21116;-59
2022/02/24 07:27:44;;;;;;;20.62;9.50;;;;;;;6.68;84.07;149338.53;1713178;81;21091;-59
2022/02/24 07:30:14;;;;;;;24.87;10.05;;;;;;;6.79;83.14;149364.38;1724027;80;21117;-60
2022/02/24 07:32:41;;;;;;;27.05;9.50;;;;;;;6.84;82.18;149377.31;1715780;81;21099;-58
2022/02/24 07:35:09;;;;;;;21.20;8.90;;;;;;;6.82;82.00;149372.14;1707771;82;21204;-59
2022/02/24 07:37:37;;;;;;;16.30;9.03;;;;;;;6.82;81.44;149373.45;1710041;81;21701;-59
2022/02/24 07:40:12;;;;;;;22.07;11.75;;;;;;;6.80;80.92;149368.28;1709831;81;21191;-58
2022/02/24 07:42:39;;;;;;;16.95;9.68;;;;;;;6.74;80.62;149354.03;1718106;81;21115;-59
2022/02/24 07:45:08;;;;;;;17.52;9.25;;;;;;;6.71;80.84;149346.28;1713024;81;21140;-59
2022/02/24 07:47:35;;;;;;;18.05;9.35;;;;;;;6.69;81.15;149339.80;1709454;81;21148;-59
2022/02/24 07:50:06;;;;;;;14.68;8.80;;;;;;;6.67;81.00;149334.62;1721136;82;21053;-59
2022/02/24 07:52:36;;;;;;;23.15;9.63;;;;;;;6.64;80.99;149326.88;1743833;79;20976;-58
2022/02/24 07:55:05;;;;;;;20.62;8.93;;;;;;;6.67;81.38;149335.94;1731634;80;21045;-59
2022/02/24 07:57:33;;;;;;;25.02;10.08;;;;;;;6.75;81.08;149355.36;1738531;80;21905;-60
2022/02/24 08:00:01;;;;;;;23.10;10.50;;;;;;;6.76;80.86;149357.94;1732628;79;21053;-60
2022/02/24 08:02:39;;;;;;;22.58;10.43;;;;;;;6.77;80.90;149360.53;1715205;81;22148;-59
2022/02/24 08:05:12;;;;;;;34.55;10.43;;;;;;;6.78;80.99;149361.80;1726595;80;21103;-59
2022/02/24 08:07:43;;;;;;;21.75;10.08;;;;;;;6.73;81.11;149350.13;1737254;79;21400;-59
2022/02/24 08:10:11;;;;;;;19.98;10.15;;;;;;;6.68;81.35;149337.20;1756123;79;21411;-59
2022/02/24 08:12:39;;;;;;;21.27;10.13;;;;;;;6.67;81.59;149334.62;1731782;80;21124;-58
2022/02/24 08:15:07;;;;;;;23.02;10.30;;;;;;;6.65;81.84;149330.77;1725470;80;21127;-59
2022/02/24 08:17:35;;;;;;;20.00;10.18;;;;;;;6.65;82.03;149329.45;1728090;79;21813;-59
2022/02/24 08:20:07;;;;;;;19.77;10.13;;;;;;;6.62;82.22;149321.69;1735617;79;22403;-59
2022/02/24 08:22:38;;;;;;;38.33;12.40;;;;;;;6.58;81.99;149313.94;1741339;80;21111;-59
2022/02/24 08:25:07;;;;;;;28.70;11.68;;;;;;;6.56;82.54;149308.77;1717541;80;21096;-58
2022/02/24 08:27:38;;;;;;;21.62;10.55;;;;;;;6.62;82.76;149321.69;1739551;79;21450;-60
2022/02/24 08:30:12;;;;;;;20.62;10.45;;;;;;;6.67;81.96;149334.62;1725805;79;21056;-59
2022/02/24 08:32:41;;;;;;;21.68;10.90;;;;;;;6.65;81.79;149330.77;1733155;80;21553;-59
2022/02/24 08:35:09;;;;;;;20.17;10.30;;;;;;;6.56;82.02;149308.77;1742948;80;21012;-59
2022/02/24 08:37:36;;;;;;;20.85;9.08;;;;;;;6.53;82.39;149301.02;1730433;79;21650;-59
2022/02/24 08:40:04;;;;;;;23.52;10.60;;;;;;;6.53;82.47;149301.02;1747536;80;21283;-59
2022/02/24 08:42:33;;;;;;;21.75;10.75;;;;;;;6.55;82.38;149306.19;1744392;80;21119;-58
2022/02/24 08:45:00;;;;;;;20.48;10.20;;;;;;;6.59;82.49;149316.53;1752808;80;20920;-57
2022/02/24 08:47:27;;;;;;;29.05;10.30;;;;;;;6.62;82.64;149321.69;1745358;79;21570;-58
2022/02/24 08:49:54;;;;;;;28.07;11.57;;;;;;;6.66;82.47;149332.03;1734960;79;21147;-59
2022/02/24 08:52:21;;;;;;;21.37;10.15;;;;;;;6.70;82.12;149342.37;1738367;79;21092;-59
2022/02/24 08:54:48;;;;;;;24.32;10.35;;;;;;;6.73;81.58;149350.13;1742811;79;21545;-59
2022/02/24 08:57:15;;;;;;;23.85;11.03;;;;;;;6.75;81.08;149355.36;1740384;79;21125;-59
2022/02/24 08:59:43;;;;;;;30.50;11.05;;;;;;;6.77;81.10;149360.53;1746344;79;21901;-59
2022/02/24 09:02:10;;;;;;;25.12;11.83;;;;;;;6.75;80.95;149355.36;1740456;79;21106;-60
2022/02/24 09:04:37;;;;;;;29.20;12.50;;;;;;;6.70;80.62;149342.37;1738131;79;21308;-58
2022/02/24 09:07:04;;;;;;;19.75;10.78;;;;;;;6.67;80.87;149335.94;1718118;80;20977;-59
2022/02/24 09:09:31;;;;;;;28.00;10.63;;;;;;;6.66;80.75;149332.03;1744330;80;21069;-59
2022/02/24 09:11:59;;;;;;;21.00;10.38;;;;;;;6.65;80.47;149329.45;1722662;81;21064;-60
2022/02/24 09:14:26;;;;;;;22.55;11.40;;;;;;;6.60;80.32;149317.80;1724971;80;21080;-59
2022/02/24 09:16:55;;;;;;;19.65;10.68;;;;;;;6.53;80.13;149301.02;1735214;80;21079;-59
2022/02/24 09:19:22;;;;;;;16.70;10.25;;;;;;;6.49;80.52;149289.36;1724805;80;21039;-59
2022/02/24 09:21:49;;;;;;;22.27;10.85;;;;;;;6.53;80.67;149299.69;1726176;80;21093;-59
2022/02/24 09:24:16;;;;;;;18.87;10.40;;;;;;;6.59;80.32;149316.53;1721572;80;21896;-59
2022/02/24 09:26:43;;;;;;;20.72;10.40;;;;;;;6.67;80.24;149335.94;1726913;80;21402;-59
2022/02/24 09:29:11;;;;;;;20.55;11.48;;;;;;;6.72;80.01;149347.55;1717748;80;21861;-60
2022/02/24 09:31:38;;;;;;;20.23;10.20;;;;;;;6.79;79.25;149364.38;1718095;81;21088;-59
2022/02/24 09:34:13;;;;;;;23.47;11.13;;;;;;;6.85;78.52;149381.22;1720090;80;21065;-60
2022/02/24 09:36:45;;;;;;;16.85;10.60;;;;;;;6.90;78.46;149392.87;1692117;84;22173;-60
2022/02/24 09:39:13;;;;;;;18.60;10.98;;;;;;;6.99;78.61;149416.16;1724816;82;21027;-60
2022/02/24 09:41:40;;;;;;;22.32;11.50;;;;;;;7.07;78.52;149435.56;1706314;83;21473;-59
2022/02/24 09:44:07;;;;;;;19.32;10.10;;;;;;;7.20;78.18;149466.66;1715143;83;21077;-60
2022/02/24 09:46:35;;;;;;;18.50;10.20;;;;;;;7.33;77.87;149500.28;1709840;83;21080;-60
2022/02/24 09:49:03;;;;;;;20.25;11.18;;;;;;;7.48;76.85;149536.55;1723555;81;21444;-60
2022/02/24 09:51:31;;;;;;;19.75;10.08;;;;;;;7.63;76.19;149575.41;1724951;81;21440;-60
2022/02/24 09:53:59;;;;;;;19.10;10.55;;;;;;;7.85;75.35;149631.06;1719193;81;21484;-60
2022/02/24 09:56:29;;;;;;;21.48;10.38;;;;;;;8.05;74.98;149678.97;1706817;83;21012;-59
2022/02/24 09:58:56;;;;;;;17.85;10.72;;;;;;;8.24;74.59;149728.19;1697314;83;20942;-61
2022/02/24 10:01:24;;;;;;;24.35;10.90;;;;;;;8.35;73.80;149754.12;1696855;84;21498;-59
2022/02/24 10:03:57;;;;;;;17.73;10.70;;;;;;;8.46;73.76;149782.61;1697122;84;21030;-59
2022/02/24 10:06:39;;;;;;;21.90;10.93;;;;;;;8.55;73.41;149806.00;1714959;80;21724;-59
2022/02/24 10:09:17;;;;;;;25.65;11.45;;;;;;;8.65;72.49;149829.31;1736216;82;21135;-60
2022/02/24 10:12:08;;;;;;;20.85;9.78;;;;;;;8.78;71.86;149863.03;1719326;81;21111;-59
2022/02/24 10:14:36;;;;;;;20.10;10.80;;;;;;;8.94;70.28;149903.19;1749665;80;21386;-59
2022/02/24 10:17:07;;;;;;;20.95;10.40;;;;;;;9.02;69.34;149922.64;1743254;82;20947;-59
2022/02/24 10:19:43;;;;;;;23.25;10.93;;;;;;;9.07;68.29;149935.59;1744052;80;21339;-60
2022/02/24 10:22:19;;;;;;;17.12;10.30;;;;;;;9.05;68.12;149930.41;1731810;82;21019;-58
2022/02/24 10:25:05;;;;;;;19.52;10.88;;;;;;;9.04;68.38;149927.81;1772238;80;21068;-60
2022/02/24 10:27:36;;;;;;;21.42;10.68;;;;;;;9.07;68.83;149935.59;1769961;80;21925;-60
2022/02/24 10:30:08;;;;;;;18.65;10.25;;;;;;;9.10;68.47;149943.36;1756719;80;20981;-59
2022/02/24 10:32:46;;;;;;;20.25;9.35;;;;;;;9.04;68.08;149927.81;1721350;80;21120;-61
2022/02/24 10:35:40;;;;;;;19.95;10.38;;;;;;;9.01;68.51;149921.31;1713343;83;21076;-60
2022/02/24 10:38:14;;;;;;;19.10;10.25;;;;;;;8.96;68.19;149907.09;1712916;83;21076;-60
2022/02/24 10:40:47;;;;;;;20.10;10.30;;;;;;;8.87;68.60;149886.33;1713391;82;21553;-59
2022/02/24 10:43:23;;;;;;;21.65;11.00;;;;;;;8.88;69.48;149887.66;1742582;80;21024;-59
2022/02/24 10:46:17;;;;;;;17.70;11.38;;;;;;;8.87;69.62;149886.33;1758559;81;21072;-58
2022/02/24 10:48:57;;;;;;;21.10;10.70;;;;;;;8.84;69.74;149877.23;1742235;81;21044;-58
2022/02/24 10:51:26;;;;;;;19.27;10.85;;;;;;;8.75;70.19;149855.25;1737788;80;21270;-61
2022/02/24 10:54:03;;;;;;;20.02;11.68;;;;;;;8.67;70.44;149834.48;1756986;80;21088;-59
2022/02/24 10:56:30;;;;;;;14.50;9.63;;;;;;;8.58;70.98;149813.78;1755624;80;21050;-60
2022/02/24 10:58:57;;;;;;;20.43;10.45;;;;;;;8.55;71.12;149806.00;1744136;80;21086;-59
2022/02/24 11:01:25;;;;;;;20.48;11.48;;;;;;;8.55;71.09;149806.00;1745031;80;21386;-60
2022/02/24 11:03:57;;;;;;;21.85;11.35;;;;;;;8.55;71.15;149806.00;1755259;80;21004;-60
2022/02/24 11:06:26;;;;;;;20.02;11.00;;;;;;;8.56;71.01;149808.59;1736796;81;21825;-59
2022/02/24 11:08:54;;;;;;;17.65;10.10;;;;;;;8.59;70.93;149816.36;1737400;82;21073;-60
2022/02/24 11:11:29;;;;;;;19.62;10.50;;;;;;;8.56;70.86;149808.59;1735555;82;21114;-59
2022/02/24 11:13:59;;;;;;;17.60;9.53;;;;;;;8.55;70.74;149804.69;1738313;80;21722;-58
2022/02/24 11:16:27;;;;;;;16.02;9.53;;;;;;;8.54;70.22;149803.42;1749225;80;21480;-58
2022/02/24 11:18:57;;;;;;;19.77;9.98;;;;;;;8.52;70.09;149798.23;1726579;82;21116;-58